Time;durP1;ratioP1;P1;durP2;ratioP2;P2;SDS_P1;SDS_P2;PMS_P1;PMS_P2;Temp;Humidity;BMP_temperature;BMP_pressure;BME280_temperature;BME280_humidity;BME280_pressure;Samples;Min_cycle;Max_cycle;Signal;HPM_P1;HPM_P2
2022/07/09 00:00:39;;;;;;;4.30;2.50;;;;;;;;;;5092303;28;20242;-50
2022/07/09 00:03:05;;;;;;;3.67;2.63;;;;;;;;;;5092324;28;20195;-51
2022/07/09 00:05:31;;;;;;;3.00;2.70;;;;;;;;;;5091960;28;20194;-51
2022/07/09 00:07:57;;;;;;;4.47;2.80;;;;;;;;;;5092065;28;20195;-52
2022/07/09 00:10:23;;;;;;;3.73;3.20;;;;;;;;;;5092253;28;20563;-50
2022/07/09 00:12:50;;;;;;;4.10;3.20;;;;;;;;;;5092227;28;20240;-52
2022/07/09 00:15:16;;;;;;;3.20;2.90;;;;;;;;;;5092373;28;20210;-50
2022/07/09 00:17:42;;;;;;;3.77;3.03;;;;;;;;;;5092264;28;20732;-51
2022/07/09 00:20:09;;;;;;;5.27;3.13;;;;;;;;;;5090270;28;20239;-50
2022/07/09 00:22:35;;;;;;;7.60;3.27;;;;;;;;;;5092329;28;20191;-51
2022/07/09 00:25:01;;;;;;;6.33;3.47;;;;;;;;;;5091985;28;20282;-50
2022/07/09 00:27:27;;;;;;;3.37;3.03;;;;;;;;;;5092222;28;20199;-50
2022/07/09 00:29:55;;;;;;;8.20;3.33;;;;;;;;;;5091887;28;20191;-50
2022/07/09 00:32:21;;;;;;;7.43;3.83;;;;;;;;;;5092144;28;20262;-50
2022/07/09 00:34:47;;;;;;;6.53;3.53;;;;;;;;;;5091937;28;20195;-50
2022/07/09 00:37:13;;;;;;;6.03;3.63;;;;;;;;;;5092036;28;20198;-50
2022/07/09 00:39:39;;;;;;;4.87;3.23;;;;;;;;;;5091916;28;20595;-50
2022/07/09 00:42:05;;;;;;;4.00;3.40;;;;;;;;;;5092008;28;20555;-50
2022/07/09 00:44:31;;;;;;;5.50;3.63;;;;;;;;;;5091790;28;20680;-51
2022/07/09 00:46:59;;;;;;;7.80;3.53;;;;;;;;;;5091856;28;20194;-50
2022/07/09 00:49:25;;;;;;;5.73;3.80;;;;;;;;;;5091852;28;20195;-50
2022/07/09 00:51:52;;;;;;;7.30;4.10;;;;;;;;;;5091634;28;20284;-50
2022/07/09 00:54:18;;;;;;;4.90;3.73;;;;;;;;;;5092062;28;20195;-49
2022/07/09 00:56:44;;;;;;;5.13;3.47;;;;;;;;;;5092369;28;20529;-50
2022/07/09 00:59:12;;;;;;;5.27;3.70;;;;;;;;;;5095787;28;20218;-50
2022/07/09 01:01:38;;;;;;;7.93;4.57;;;;;;;;;;5095810;28;20187;-50
2022/07/09 01:04:06;;;;;;;5.73;4.00;;;;;;;;;;5095637;28;20210;-50
2022/07/09 01:06:32;;;;;;;6.87;4.30;;;;;;;;;;5095673;28;20203;-50
2022/07/09 01:08:58;;;;;;;7.57;4.27;;;;;;;;;;5095549;28;20240;-50
2022/07/09 01:11:24;;;;;;;7.07;4.50;;;;;;;;;;5095544;28;20222;-51
2022/07/09 01:13:51;;;;;;;8.27;4.63;;;;;;;;;;5095557;28;20198;-50
2022/07/09 01:16:17;;;;;;;7.63;4.80;;;;;;;;;;5095692;28;20206;-50
2022/07/09 01:18:44;;;;;;;9.43;4.87;;;;;;;;;;5095341;28;20207;-50
2022/07/09 01:21:11;;;;;;;6.87;4.53;;;;;;;;;;5095179;28;20239;-50
2022/07/09 01:23:37;;;;;;;8.57;3.97;;;;;;;;;;5095255;28;20229;-50
2022/07/09 01:26:03;;;;;;;9.43;4.80;;;;;;;;;;5095314;28;20670;-49
2022/07/09 01:28:29;;;;;;;10.40;4.70;;;;;;;;;;5095391;28;20244;-50
2022/07/09 01:30:55;;;;;;;9.50;4.57;;;;;;;;;;5094930;28;20633;-50
2022/07/09 01:33:21;;;;;;;8.13;3.80;;;;;;;;;;5095045;28;20294;-50
2022/07/09 01:35:47;;;;;;;10.87;5.07;;;;;;;;;;5095200;28;20199;-50
2022/07/09 01:38:14;;;;;;;8.17;4.60;;;;;;;;;;5093040;28;20202;-49
2022/07/09 01:40:40;;;;;;;6.00;4.50;;;;;;;;;;5094988;28;20679;-50
2022/07/09 01:43:06;;;;;;;8.53;5.10;;;;;;;;;;5094885;28;20198;-50
2022/07/09 01:45:32;;;;;;;7.97;4.87;;;;;;;;;;5095087;28;20278;-50
2022/07/09 01:47:58;;;;;;;8.27;4.50;;;;;;;;;;5094706;28;20285;-50
2022/07/09 01:50:24;;;;;;;10.80;5.10;;;;;;;;;;5094626;28;20228;-50
2022/07/09 01:52:51;;;;;;;5.67;4.30;;;;;;;;;;5094705;28;20626;-50
2022/07/09 01:55:18;;;;;;;8.10;4.40;;;;;;;;;;5094899;28;20615;-50
2022/07/09 01:57:44;;;;;;;5.27;3.57;;;;;;;;;;5094792;28;20210;-49
2022/07/09 02:00:11;;;;;;;6.67;4.30;;;;;;;;;;5094405;28;20246;-50
2022/07/09 02:02:37;;;;;;;7.37;4.00;;;;;;;;;;5094489;28;20676;-49
2022/07/09 02:05:03;;;;;;;7.50;4.03;;;;;;;;;;5094382;28;20198;-49
2022/07/09 02:07:29;;;;;;;8.27;4.00;;;;;;;;;;5094332;28;20202;-49
2022/07/09 02:09:55;;;;;;;9.67;3.67;;;;;;;;;;5094344;28;20195;-50
2022/07/09 02:12:22;;;;;;;8.20;4.10;;;;;;;;;;5094436;28;20300;-50
2022/07/09 02:14:49;;;;;;;7.57;3.77;;;;;;;;;;5094403;28;20206;-49
2022/07/09 02:17:15;;;;;;;5.60;3.67;;;;;;;;;;5094514;28;20233;-49
2022/07/09 02:19:41;;;;;;;5.67;3.97;;;;;;;;;;5093935;28;20234;-50
2022/07/09 02:22:07;;;;;;;3.70;2.90;;;;;;;;;;5094137;28;20253;-50
2022/07/09 02:24:33;;;;;;;6.13;3.83;;;;;;;;;;5094197;28;20203;-49
2022/07/09 02:26:59;;;;;;;4.30;3.23;;;;;;;;;;5094105;28;20194;-49
2022/07/09 02:29:26;;;;;;;4.73;3.47;;;;;;;;;;5094049;28;20221;-50
2022/07/09 02:31:55;;;;;;;4.93;3.70;;;;;;;;;;5093940;28;20309;-49
2022/07/09 02:34:21;;;;;;;5.47;3.60;;;;;;;;;;5094089;28;20194;-50
2022/07/09 02:36:47;;;;;;;5.37;3.97;;;;;;;;;;5094099;28;20248;-49
2022/07/09 02:39:13;;;;;;;4.93;3.50;;;;;;;;;;5094022;28;20203;-49
2022/07/09 02:41:39;;;;;;;7.43;4.03;;;;;;;;;;5093912;28;20633;-49
2022/07/09 02:44:05;;;;;;;5.93;3.73;;;;;;;;;;5093752;28;20206;-50
2022/07/09 02:46:32;;;;;;;7.67;4.00;;;;;;;;;;5093919;28;20201;-49
2022/07/09 02:48:58;;;;;;;9.73;3.90;;;;;;;;;;5093537;28;20195;-50
2022/07/09 02:51:24;;;;;;;6.10;3.63;;;;;;;;;;5093239;28;20230;-49
2022/07/09 02:53:50;;;;;;;5.70;3.80;;;;;;;;;;5093502;28;20206;-49
2022/07/09 02:56:16;;;;;;;5.73;3.40;;;;;;;;;;5093680;28;20203;-49
2022/07/09 02:58:42;;;;;;;8.03;4.00;;;;;;;;;;5093383;28;20228;-49
2022/07/09 03:01:08;;;;;;;5.73;4.57;;;;;;;;;;5093108;28;20692;-50
2022/07/09 03:03:35;;;;;;;6.53;4.47;;;;;;;;;;5091659;28;20202;-49
2022/07/09 03:06:02;;;;;;;7.47;4.37;;;;;;;;;;5093339;28;20542;-51
2022/07/09 03:08:28;;;;;;;7.17;4.63;;;;;;;;;;5093274;28;20565;-50
2022/07/09 03:10:54;;;;;;;7.33;4.63;;;;;;;;;;5091339;28;20338;-51
2022/07/09 03:13:20;;;;;;;7.73;5.00;;;;;;;;;;5093199;28;20197;-51
2022/07/09 03:15:46;;;;;;;9.57;4.27;;;;;;;;;;5093276;28;20661;-51
2022/07/09 03:18:12;;;;;;;7.87;4.40;;;;;;;;;;5092951;28;20199;-51
2022/07/09 03:20:39;;;;;;;8.73;5.37;;;;;;;;;;5092221;28;20243;-51
2022/07/09 03:23:05;;;;;;;11.03;5.33;;;;;;;;;;5093008;28;20323;-50
2022/07/09 03:25:31;;;;;;;6.93;4.83;;;;;;;;;;5091293;28;20277;-50
2022/07/09 03:27:57;;;;;;;5.83;4.90;;;;;;;;;;5092855;28;20195;-50
2022/07/09 03:30:24;;;;;;;8.67;4.20;;;;;;;;;;5092840;28;20256;-50
2022/07/09 03:32:49;;;;;;;7.50;4.50;;;;;;;;;;5092712;28;20269;-50
2022/07/09 03:35:16;;;;;;;6.83;4.83;;;;;;;;;;5092770;28;20231;-50
2022/07/09 03:37:43;;;;;;;9.63;4.47;;;;;;;;;;5092728;28;20206;-50
2022/07/09 03:40:09;;;;;;;8.23;4.47;;;;;;;;;;5090888;28;20902;-50
2022/07/09 03:42:35;;;;;;;5.60;3.93;;;;;;;;;;5092724;28;20199;-49
2022/07/09 03:45:01;;;;;;;10.53;4.97;;;;;;;;;;5091354;28;20203;-50
2022/07/09 03:47:27;;;;;;;9.70;5.20;;;;;;;;;;5092575;28;20199;-50
2022/07/09 03:49:54;;;;;;;7.23;4.70;;;;;;;;;;5092397;28;20234;-51
2022/07/09 03:52:19;;;;;;;7.77;4.90;;;;;;;;;;5092411;28;20230;-51
2022/07/09 03:54:47;;;;;;;7.73;4.90;;;;;;;;;;5092329;28;20202;-51
2022/07/09 03:57:13;;;;;;;6.93;5.30;;;;;;;;;;5092174;28;20231;-51
2022/07/09 03:59:39;;;;;;;7.80;5.70;;;;;;;;;;5092355;28;20247;-50
2022/07/09 04:02:05;;;;;;;9.00;6.40;;;;;;;;;;5092215;28;20198;-51
2022/07/09 04:04:31;;;;;;;10.63;5.90;;;;;;;;;;5092388;28;20202;-49
2022/07/09 04:06:57;;;;;;;6.30;5.60;;;;;;;;;;5092092;28;20202;-48
2022/07/09 04:09:23;;;;;;;11.63;6.53;;;;;;;;;;5092339;28;20202;-50
2022/07/09 04:11:50;;;;;;;9.43;6.30;;;;;;;;;;5092272;28;20227;-50
2022/07/09 04:14:19;;;;;;;10.13;7.23;;;;;;;;;;5092606;28;20202;-49
2022/07/09 04:16:45;;;;;;;15.90;6.80;;;;;;;;;;5092337;28;20210;-50
2022/07/09 04:19:11;;;;;;;8.07;6.60;;;;;;;;;;5091772;28;20199;-50
2022/07/09 04:21:37;;;;;;;10.07;7.10;;;;;;;;;;5092186;28;20652;-51
2022/07/09 04:24:03;;;;;;;7.87;5.80;;;;;;;;;;5092141;28;20198;-51
2022/07/09 04:26:29;;;;;;;10.33;7.47;;;;;;;;;;5092283;28;20210;-50
2022/07/09 04:28:56;;;;;;;12.60;7.47;;;;;;;;;;5092076;28;20206;-50
2022/07/09 04:31:23;;;;;;;10.23;6.93;;;;;;;;;;5090198;28;20234;-51
2022/07/09 04:33:49;;;;;;;9.17;6.93;;;;;;;;;;5096268;28;20201;-51
2022/07/09 04:36:15;;;;;;;10.07;7.03;;;;;;;;;;5096142;28;20194;-49
2022/07/09 04:38:41;;;;;;;15.40;8.07;;;;;;;;;;5096242;28;20194;-50
2022/07/09 04:41:07;;;;;;;12.47;7.97;;;;;;;;;;5096070;28;20274;-50
2022/07/09 04:43:33;;;;;;;14.03;8.67;;;;;;;;;;5096262;28;20209;-49
2022/07/09 04:46:01;;;;;;;10.93;8.30;;;;;;;;;;5095882;28;20241;-50
2022/07/09 04:48:27;;;;;;;11.80;7.83;;;;;;;;;;5096002;28;20217;-51
2022/07/09 04:50:53;;;;;;;11.40;7.77;;;;;;;;;;5095760;28;20195;-50
2022/07/09 04:53:19;;;;;;;9.60;8.00;;;;;;;;;;5096008;28;20649;-51
2022/07/09 04:55:45;;;;;;;16.23;9.23;;;;;;;;;;5095901;28;20416;-50
2022/07/09 04:58:11;;;;;;;14.93;8.60;;;;;;;;;;5095727;28;20684;-50
2022/07/09 05:00:37;;;;;;;10.57;8.13;;;;;;;;;;5095375;28;20263;-50
2022/07/09 05:03:04;;;;;;;12.30;9.27;;;;;;;;;;5095564;28;20203;-49
2022/07/09 05:05:30;;;;;;;15.60;7.87;;;;;;;;;;5095403;28;20207;-50
2022/07/09 05:07:56;;;;;;;11.37;9.53;;;;;;;;;;5095150;28;20281;-50
2022/07/09 05:10:22;;;;;;;11.53;8.93;;;;;;;;;;5095226;28;20204;-50
2022/07/09 05:12:48;;;;;;;10.87;8.23;;;;;;;;;;5095545;28;20258;-50
2022/07/09 05:15:14;;;;;;;10.63;8.63;;;;;;;;;;5095227;28;20194;-49
2022/07/09 05:17:41;;;;;;;10.57;7.97;;;;;;;;;;5094931;28;20206;-50
2022/07/09 05:20:10;;;;;;;12.37;8.97;;;;;;;;;;5095035;28;20240;-50
2022/07/09 05:22:37;;;;;;;12.43;8.10;;;;;;;;;;5095114;28;20656;-50
2022/07/09 05:25:03;;;;;;;10.70;9.00;;;;;;;;;;5095188;28;20202;-50
2022/07/09 05:27:29;;;;;;;9.90;7.80;;;;;;;;;;5095532;28;20191;-49
2022/07/09 05:29:55;;;;;;;9.57;7.87;;;;;;;;;;5095162;28;20610;-50
2022/07/09 05:32:21;;;;;;;14.87;8.73;;;;;;;;;;5094686;28;20302;-50
2022/07/09 05:34:47;;;;;;;10.03;7.20;;;;;;;;;;5095131;28;20199;-50
2022/07/09 05:37:15;;;;;;;8.73;6.47;;;;;;;;;;5094828;28;20244;-50
2022/07/09 05:39:41;;;;;;;8.00;6.63;;;;;;;;;;5094950;28;20210;-49
2022/07/09 05:42:07;;;;;;;12.07;7.80;;;;;;;;;;5094730;28;20278;-50
2022/07/09 05:44:34;;;;;;;10.67;7.30;;;;;;;;;;5094585;28;20283;-50
2022/07/09 05:47:01;;;;;;;14.87;7.23;;;;;;;;;;5094700;28;20203;-50
2022/07/09 05:49:28;;;;;;;8.93;6.10;;;;;;;;;;5094907;28;20195;-50
2022/07/09 05:51:53;;;;;;;11.33;7.13;;;;;;;;;;5094634;28;20223;-50
2022/07/09 05:54:21;;;;;;;9.20;7.30;;;;;;;;;;5094716;28;20267;-49
2022/07/09 05:56:47;;;;;;;12.03;6.87;;;;;;;;;;5094583;28;20199;-49
2022/07/09 05:59:13;;;;;;;9.03;7.47;;;;;;;;;;5094272;28;20735;-49
2022/07/09 06:01:41;;;;;;;10.57;7.47;;;;;;;;;;5094695;28;20190;-49
2022/07/09 06:04:07;;;;;;;10.50;7.63;;;;;;;;;;5094335;28;20203;-50
2022/07/09 06:06:33;;;;;;;10.77;7.27;;;;;;;;;;5094430;28;20727;-50
2022/07/09 06:08:59;;;;;;;9.87;6.50;;;;;;;;;;5094166;28;20234;-50
2022/07/09 06:11:26;;;;;;;11.70;6.80;;;;;;;;;;5094191;28;20226;-50
2022/07/09 06:13:52;;;;;;;11.17;6.80;;;;;;;;;;5094258;28;20199;-51
2022/07/09 06:16:18;;;;;;;9.57;7.03;;;;;;;;;;5094283;28;20203;-50
2022/07/09 06:18:44;;;;;;;7.90;5.53;;;;;;;;;;5086000;28;20248;-56
2022/07/09 06:21:10;;;;;;;9.13;7.10;;;;;;;;;;5093816;28;20329;-53
2022/07/09 06:23:36;;;;;;;7.77;5.50;;;;;;;;;;5092031;28;20223;-51
2022/07/09 06:26:02;;;;;;;7.37;5.93;;;;;;;;;;5093726;28;20693;-52
2022/07/09 06:28:30;;;;;;;7.97;6.30;;;;;;;;;;5094010;28;20199;-51
2022/07/09 06:30:56;;;;;;;8.37;6.63;;;;;;;;;;5093510;28;20200;-51
2022/07/09 06:33:22;;;;;;;6.03;5.33;;;;;;;;;;5093592;28;20199;-51
2022/07/09 06:35:48;;;;;;;11.43;6.13;;;;;;;;;;5093901;28;20199;-51
2022/07/09 06:38:14;;;;;;;5.87;4.90;;;;;;;;;;5093357;28;20208;-53
2022/07/09 06:40:40;;;;;;;6.40;4.87;;;;;;;;;;5093629;28;20191;-52
2022/07/09 06:43:09;;;;;;;6.43;4.13;;;;;;;;;;5091619;28;20200;-52
2022/07/09 06:45:36;;;;;;;8.07;4.30;;;;;;;;;;5093312;28;20202;-52
2022/07/09 06:48:02;;;;;;;5.23;3.90;;;;;;;;;;5093272;28;20574;-52
2022/07/09 06:50:28;;;;;;;5.30;3.27;;;;;;;;;;5093356;28;20247;-52
2022/07/09 06:52:54;;;;;;;5.20;3.83;;;;;;;;;;5093099;28;20607;-51
2022/07/09 06:55:20;;;;;;;3.70;3.27;;;;;;;;;;5092292;28;20232;-52
2022/07/09 06:57:46;;;;;;;4.60;3.87;;;;;;;;;;5093239;28;20257;-51
2022/07/09 07:00:12;;;;;;;7.20;4.40;;;;;;;;;;5092917;28;20224;-51
2022/07/09 07:02:40;;;;;;;5.83;4.20;;;;;;;;;;5092994;28;20196;-52
2022/07/09 07:05:06;;;;;;;5.73;3.17;;;;;;;;;;5092905;28;20210;-51
2022/07/09 07:07:32;;;;;;;5.13;3.70;;;;;;;;;;5093124;28;20200;-52
2022/07/09 07:09:58;;;;;;;6.40;3.80;;;;;;;;;;5092873;28;20237;-52
2022/07/09 07:12:24;;;;;;;3.47;3.17;;;;;;;;;;5092748;28;20699;-52
2022/07/09 07:14:50;;;;;;;5.83;3.30;;;;;;;;;;5092873;28;20206;-51
2022/07/09 07:17:16;;;;;;;4.63;3.30;;;;;;;;;;5092757;28;20210;-52
2022/07/09 07:19:43;;;;;;;5.17;3.13;;;;;;;;;;5092867;28;20241;-52
2022/07/09 07:22:09;;;;;;;3.57;2.60;;;;;;;;;;5092639;28;20197;-52
2022/07/09 07:24:35;;;;;;;4.40;3.10;;;;;;;;;;5093007;28;20203;-52
2022/07/09 07:27:01;;;;;;;3.20;2.90;;;;;;;;;;5092862;28;20285;-51
2022/07/09 07:29:27;;;;;;;5.10;3.30;;;;;;;;;;5092624;28;20631;-52
2022/07/09 07:31:53;;;;;;;3.60;3.10;;;;;;;;;;5092424;28;20229;-51
2022/07/09 07:34:22;;;;;;;7.13;3.17;;;;;;;;;;5092397;28;20200;-51
2022/07/09 07:36:50;;;;;;;4.60;3.40;;;;;;;;;;5092492;28;20721;-52
2022/07/09 07:39:16;;;;;;;6.13;3.30;;;;;;;;;;5092409;28;20205;-52
2022/07/09 07:41:42;;;;;;;6.07;3.07;;;;;;;;;;5092361;28;20194;-52
2022/07/09 07:44:08;;;;;;;5.87;3.40;;;;;;;;;;5092308;28;20197;-52
2022/07/09 07:46:34;;;;;;;5.07;3.07;;;;;;;;;;5092434;28;20663;-50
2022/07/09 07:49:00;;;;;;;5.53;3.53;;;;;;;;;;5092111;28;20201;-51
2022/07/09 07:51:26;;;;;;;3.57;3.10;;;;;;;;;;5092137;28;20471;-51
2022/07/09 07:53:53;;;;;;;6.23;3.33;;;;;;;;;;5092114;28;20204;-51
2022/07/09 07:56:19;;;;;;;5.17;3.13;;;;;;;;;;5092125;28;20534;-52
2022/07/09 07:58:45;;;;;;;3.23;2.93;;;;;;;;;;5092214;28;20205;-50
2022/07/09 08:01:11;;;;;;;4.67;2.73;;;;;;;;;;5091791;28;20633;-52
2022/07/09 08:03:37;;;;;;;3.93;2.87;;;;;;;;;;5091951;28;20193;-52
2022/07/09 08:06:03;;;;;;;4.37;3.17;;;;;;;;;;5091741;28;20304;-51
2022/07/09 08:08:29;;;;;;;5.20;3.40;;;;;;;;;;5092264;28;20185;-52
2022/07/09 08:10:57;;;;;;;4.80;2.87;;;;;;;;;;5091694;28;20197;-52
2022/07/09 08:13:23;;;;;;;4.63;3.10;;;;;;;;;;5091959;28;20217;-51
2022/07/09 08:15:49;;;;;;;4.03;2.60;;;;;;;;;;5091948;28;20225;-51
2022/07/09 08:18:15;;;;;;;3.53;2.67;;;;;;;;;;5091735;28;20664;-51
2022/07/09 08:20:42;;;;;;;5.80;3.20;;;;;;;;;;5091551;28;20783;-51
2022/07/09 08:23:08;;;;;;;4.90;2.97;;;;;;;;;;5091595;28;20195;-50
2022/07/09 08:25:34;;;;;;;4.07;2.67;;;;;;;;;;5091824;28;20679;-51
2022/07/09 08:28:02;;;;;;;5.23;2.50;;;;;;;;;;5091780;28;20197;-51
2022/07/09 08:30:28;;;;;;;5.53;3.07;;;;;;;;;;5091799;28;20267;-51
2022/07/09 08:32:54;;;;;;;3.90;2.30;;;;;;;;;;5091559;28;20229;-52
2022/07/09 08:35:20;;;;;;;4.70;2.73;;;;;;;;;;5091673;28;20233;-52
2022/07/09 08:37:46;;;;;;;4.00;2.70;;;;;;;;;;5092048;28;20194;-52
2022/07/09 08:40:12;;;;;;;5.23;2.63;;;;;;;;;;5091572;28;20212;-51
2022/07/09 08:42:38;;;;;;;6.43;2.80;;;;;;;;;;5091596;28;20201;-52
2022/07/09 08:45:08;;;;;;;5.03;2.70;;;;;;;;;;5091783;28;20696;-51
2022/07/09 08:47:35;;;;;;;4.63;2.60;;;;;;;;;;5091640;28;20232;-51
2022/07/09 08:50:01;;;;;;;5.33;2.60;;;;;;;;;;5091407;28;20197;-51
2022/07/09 08:52:27;;;;;;;3.10;2.33;;;;;;;;;;5091140;28;20237;-51
2022/07/09 08:54:54;;;;;;;3.73;2.73;;;;;;;;;;5091545;28;20206;-51
2022/07/09 08:57:20;;;;;;;3.33;2.40;;;;;;;;;;5091470;28;20218;-52
2022/07/09 08:59:46;;;;;;;4.30;2.33;;;;;;;;;;5091613;28;20260;-52
2022/07/09 09:02:13;;;;;;;3.37;2.30;;;;;;;;;;5091285;28;20221;-51
2022/07/09 09:04:40;;;;;;;4.00;2.27;;;;;;;;;;5091307;28;20205;-51
2022/07/09 09:07:13;;;;;;;4.97;2.80;;;;;;;;;;5091277;28;20209;-51
2022/07/09 09:09:39;;;;;;;2.73;2.20;;;;;;;;;;5091328;28;20641;-52
2022/07/09 09:12:05;;;;;;;4.10;2.97;;;;;;;;;;5091242;28;20233;-51
2022/07/09 09:14:31;;;;;;;3.50;1.90;;;;;;;;;;5091362;28;20648;-52
2022/07/09 09:17:02;;;;;;;5.13;2.20;;;;;;;;;;5091237;28;20202;-52
2022/07/09 09:19:30;;;;;;;2.90;2.43;;;;;;;;;;5094455;28;20245;-51
2022/07/09 09:21:56;;;;;;;3.53;2.00;;;;;;;;;;5095022;28;20827;-51
2022/07/09 09:24:26;;;;;;;7.30;2.57;;;;;;;;;;5094931;28;20204;-52
2022/07/09 09:26:52;;;;;;;3.87;2.03;;;;;;;;;;5094838;28;20202;-52
2022/07/09 09:29:18;;;;;;;4.53;1.87;;;;;;;;;;5094914;28;20290;-52
2022/07/09 09:31:45;;;;;;;2.57;1.67;;;;;;;;;;5094760;28;20248;-52
2022/07/09 09:34:12;;;;;;;3.90;1.80;;;;;;;;;;5093622;28;20421;-52
2022/07/09 09:36:41;;;;;;;3.70;1.70;;;;;;;;;;5094840;28;20203;-52
2022/07/09 09:39:10;;;;;;;4.60;1.83;;;;;;;;;;5094517;28;20742;-52
2022/07/09 09:41:36;;;;;;;5.83;1.93;;;;;;;;;;5094635;28;20253;-53
2022/07/09 09:44:04;;;;;;;2.47;1.63;;;;;;;;;;5094594;28;20657;-52
2022/07/09 09:46:30;;;;;;;2.83;1.90;;;;;;;;;;5094451;28;20716;-52
2022/07/09 09:48:56;;;;;;;3.93;2.00;;;;;;;;;;5094355;28;20199;-52
2022/07/09 09:51:22;;;;;;;4.60;1.60;;;;;;;;;;5094134;28;20215;-51
2022/07/09 09:53:51;;;;;;;3.77;1.70;;;;;;;;;;5094559;28;20194;-52
2022/07/09 09:56:17;;;;;;;5.10;2.00;;;;;;;;;;5094413;28;20203;-52
2022/07/09 09:58:44;;;;;;;2.80;1.90;;;;;;;;;;5094275;28;20711;-53
2022/07/09 10:01:10;;;;;;;6.40;1.80;;;;;;;;;;5094094;28;20760;-50
2022/07/09 10:03:36;;;;;;;3.90;1.87;;;;;;;;;;5093993;28;20580;-51
2022/07/09 10:06:02;;;;;;;3.30;1.60;;;;;;;;;;5094271;28;20231;-52
2022/07/09 10:08:29;;;;;;;2.07;1.50;;;;;;;;;;5094128;28;20195;-53
2022/07/09 10:10:56;;;;;;;2.30;1.50;;;;;;;;;;5094123;28;20205;-51
2022/07/09 10:13:22;;;;;;;2.63;1.63;;;;;;;;;;5094199;28;20311;-53
2022/07/09 10:15:49;;;;;;;3.67;1.57;;;;;;;;;;5094168;28;20769;-53
2022/07/09 10:18:17;;;;;;;2.83;1.67;;;;;;;;;;5094094;28;20224;-52
2022/07/09 10:20:43;;;;;;;3.23;1.70;;;;;;;;;;5093806;28;20335;-52
2022/07/09 10:23:20;;;;;;;2.00;1.50;;;;;;;;;;5093768;28;20199;-52
2022/07/09 10:25:47;;;;;;;3.47;1.50;;;;;;;;;;5093843;28;20684;-52
2022/07/09 10:28:17;;;;;;;3.53;1.73;;;;;;;;;;5093656;28;20302;-52
2022/07/09 10:30:43;;;;;;;2.47;1.50;;;;;;;;;;5093591;28;20736;-52
2022/07/09 10:33:10;;;;;;;1.70;1.40;;;;;;;;;;5093397;28;20244;-52
2022/07/09 10:35:43;;;;;;;2.50;1.60;;;;;;;;;;5093581;28;20262;-51
2022/07/09 10:38:10;;;;;;;3.00;1.50;;;;;;;;;;5093475;28;20193;-52
2022/07/09 10:40:40;;;;;;;2.40;1.50;;;;;;;;;;5093645;28;20204;-51
2022/07/09 10:43:06;;;;;;;2.03;1.50;;;;;;;;;;5093410;28;20611;-52
2022/07/09 10:45:40;;;;;;;3.33;1.47;;;;;;;;;;5093428;28;20189;-54
2022/07/09 10:48:06;;;;;;;4.77;1.43;;;;;;;;;;5093494;28;20252;-52
2022/07/09 10:50:33;;;;;;;2.27;1.50;;;;;;;;;;5093447;28;20194;-52
2022/07/09 10:53:00;;;;;;;1.87;1.40;;;;;;;;;;5093186;28;20231;-54
2022/07/09 10:55:27;;;;;;;2.00;1.17;;;;;;;;;;5093144;28;20656;-50
2022/07/09 10:57:53;;;;;;;2.63;1.30;;;;;;;;;;5093177;28;20201;-52
2022/07/09 11:00:20;;;;;;;2.53;1.20;;;;;;;;;;5093063;28;20586;-52
2022/07/09 11:02:57;;;;;;;1.40;1.20;;;;;;;;;;5093142;28;20242;-51
2022/07/09 11:05:24;;;;;;;2.40;0.97;;;;;;;;;;5092996;28;20206;-50
2022/07/09 11:08:01;;;;;;;3.73;1.40;;;;;;;;;;5093336;28;20564;-51
2022/07/09 11:10:28;;;;;;;2.47;1.40;;;;;;;;;;5093221;28;20201;-51
2022/07/09 11:12:54;;;;;;;2.43;1.10;;;;;;;;;;5092750;28;20243;-52
2022/07/09 11:15:21;;;;;;;2.33;1.37;;;;;;;;;;5092803;28;20243;-52
2022/07/09 11:17:54;;;;;;;2.20;1.27;;;;;;;;;;5092893;28;20209;-52
2022/07/09 11:20:22;;;;;;;1.93;1.30;;;;;;;;;;5092549;28;20583;-51
2022/07/09 11:22:48;;;;;;;1.20;1.10;;;;;;;;;;5092890;28;20199;-51
2022/07/09 11:25:15;;;;;;;2.13;1.20;;;;;;;;;;5092755;28;20197;-52
2022/07/09 11:27:41;;;;;;;3.07;0.87;;;;;;;;;;5092657;28;20202;-52
2022/07/09 11:30:12;;;;;;;1.63;1.20;;;;;;;;;;5092462;28;20218;-52
2022/07/09 11:32:38;;;;;;;1.90;1.20;;;;;;;;;;5092621;28;20295;-52
2022/07/09 11:35:04;;;;;;;1.53;1.10;;;;;;;;;;5092528;28;20661;-52
2022/07/09 11:37:31;;;;;;;3.07;1.30;;;;;;;;;;5092450;28;20208;-52
2022/07/09 11:39:57;;;;;;;3.27;1.20;;;;;;;;;;5092470;28;20229;-52
2022/07/09 11:42:24;;;;;;;2.90;1.30;;;;;;;;;;5091844;28;20274;-52
2022/07/09 11:44:58;;;;;;;1.83;1.30;;;;;;;;;;5092430;28;20203;-52
2022/07/09 11:47:32;;;;;;;4.43;1.30;;;;;;;;;;5092109;28;20209;-52
2022/07/09 11:50:05;;;;;;;2.47;1.20;;;;;;;;;;5092255;28;20196;-53
2022/07/09 11:52:33;;;;;;;2.27;1.30;;;;;;;;;;5092372;28;20233;-52
2022/07/09 11:55:00;;;;;;;2.77;1.30;;;;;;;;;;5092224;28;20266;-52
2022/07/09 11:57:26;;;;;;;2.27;1.30;;;;;;;;;;5092129;28;20194;-53
2022/07/09 11:59:52;;;;;;;2.23;1.23;;;;;;;;;;5091999;28;20212;-53
2022/07/09 12:02:25;;;;;;;3.80;2.10;;;;;;;;;;5091996;28;20238;-49
2022/07/09 12:04:51;;;;;;;6.37;2.50;;;;;;;;;;5092020;28;20228;-50
2022/07/09 12:07:17;;;;;;;4.70;2.20;;;;;;;;;;5092306;28;20218;-52
2022/07/09 12:09:44;;;;;;;4.27;1.63;;;;;;;;;;5092012;28;20252;-53
2022/07/09 12:12:10;;;;;;;3.43;1.73;;;;;;;;;;5091814;28;20219;-50
2022/07/09 12:14:36;;;;;;;3.83;2.03;;;;;;;;;;5091942;28;20194;-48
2022/07/09 12:17:02;;;;;;;4.10;2.20;;;;;;;;;;5091916;28;20657;-50
2022/07/09 12:19:28;;;;;;;4.90;1.83;;;;;;;;;;5091735;28;20602;-51
2022/07/09 12:21:54;;;;;;;3.20;2.00;;;;;;;;;;5092090;28;20191;-52
2022/07/09 12:24:20;;;;;;;4.53;2.20;;;;;;;;;;5091761;28;20568;-52
2022/07/09 12:26:47;;;;;;;3.53;2.43;;;;;;;;;;5091974;28;20676;-54
2022/07/09 12:29:13;;;;;;;2.37;2.07;;;;;;;;;;5091723;28;20214;-53
2022/07/09 12:31:39;;;;;;;5.10;2.47;;;;;;;;;;5091566;28;20230;-53
2022/07/09 12:34:05;;;;;;;3.27;2.30;;;;;;;;;;5091644;28;20201;-53
2022/07/09 12:36:32;;;;;;;2.50;1.80;;;;;;;;;;5091644;28;20202;-53
2022/07/09 12:38:58;;;;;;;3.23;1.80;;;;;;;;;;5091635;28;20202;-52
2022/07/09 12:41:24;;;;;;;2.30;1.60;;;;;;;;;;5091636;28;20256;-51
2022/07/09 12:43:51;;;;;;;5.97;1.63;;;;;;;;;;5091806;28;20655;-52
2022/07/09 12:46:17;;;;;;;2.23;1.70;;;;;;;;;;5091551;28;20218;-52
2022/07/09 12:48:43;;;;;;;2.77;1.43;;;;;;;;;;5091783;28;20202;-51
2022/07/09 12:51:09;;;;;;;2.60;1.60;;;;;;;;;;5091534;28;20187;-52
2022/07/09 12:53:35;;;;;;;1.57;1.40;;;;;;;;;;5093623;28;20234;-52
2022/07/09 12:56:01;;;;;;;1.77;1.43;;;;;;;;;;5095680;28;20200;-52
2022/07/09 12:58:27;;;;;;;3.70;1.50;;;;;;;;;;5095485;28;20203;-52
2022/07/09 13:00:54;;;;;;;1.87;1.30;;;;;;;;;;5095424;28;20252;-52
2022/07/09 13:03:20;;;;;;;1.30;1.20;;;;;;;;;;5095371;28;20205;-52
2022/07/09 13:05:46;;;;;;;1.40;1.30;;;;;;;;;;5095742;28;20207;-52
2022/07/09 13:08:12;;;;;;;2.93;1.53;;;;;;;;;;5095204;28;20728;-52
2022/07/09 13:10:38;;;;;;;2.70;1.47;;;;;;;;;;5095316;28;20277;-52
2022/07/09 13:13:04;;;;;;;2.87;1.37;;;;;;;;;;5095198;28;20239;-52
2022/07/09 13:15:30;;;;;;;1.70;1.37;;;;;;;;;;5095269;28;20205;-52
2022/07/09 13:17:57;;;;;;;2.90;1.70;;;;;;;;;;5095032;28;20200;-53
2022/07/09 13:20:23;;;;;;;2.13;1.60;;;;;;;;;;5095135;28;20238;-53
2022/07/09 13:22:49;;;;;;;3.07;1.63;;;;;;;;;;5095365;28;20202;-53
2022/07/09 13:25:16;;;;;;;3.87;1.60;;;;;;;;;;5095137;28;20204;-52
2022/07/09 13:27:42;;;;;;;3.43;1.50;;;;;;;;;;5095250;28;20199;-52
2022/07/09 13:30:08;;;;;;;4.17;1.87;;;;;;;;;;5086341;28;20204;-52
2022/07/09 13:32:34;;;;;;;5.37;1.80;;;;;;;;;;5074780;28;20219;-52
2022/07/09 13:35:01;;;;;;;3.73;1.67;;;;;;;;;;5074767;28;20291;-50
2022/07/09 13:37:27;;;;;;;2.40;1.40;;;;;;;;;;5074666;28;20204;-52
2022/07/09 13:39:53;;;;;;;6.63;1.40;;;;;;;;;;5074641;28;20204;-51
2022/07/09 13:42:19;;;;;;;2.03;1.20;;;;;;;;;;5074752;28;20616;-51
2022/07/09 13:44:45;;;;;;;1.60;1.10;;;;;;;;;;5074661;28;20201;-51
2022/07/09 13:47:11;;;;;;;2.40;1.20;;;;;;;;;;5074625;28;20284;-52
2022/07/09 13:49:37;;;;;;;1.93;1.30;;;;;;;;;;5074607;28;20197;-51
2022/07/09 13:52:05;;;;;;;1.47;1.03;;;;;;;;;;5074593;28;20274;-50
2022/07/09 13:54:31;;;;;;;3.13;1.57;;;;;;;;;;5074642;28;20228;-50
2022/07/09 13:56:58;;;;;;;4.80;1.60;;;;;;;;;;5072713;28;20243;-49
2022/07/09 13:59:24;;;;;;;5.73;1.33;;;;;;;;;;5074275;28;20302;-50
2022/07/09 14:01:50;;;;;;;2.77;1.53;;;;;;;;;;5074458;28;20568;-52
2022/07/09 14:04:16;;;;;;;2.00;1.30;;;;;;;;;;5073917;28;20668;-50
2022/07/09 14:06:42;;;;;;;2.73;1.30;;;;;;;;;;5074529;28;20200;-51
2022/07/09 14:09:09;;;;;;;1.80;1.27;;;;;;;;;;5074336;28;20694;-51
2022/07/09 14:11:35;;;;;;;3.00;1.53;;;;;;;;;;5074115;28;20196;-52
2022/07/09 14:14:01;;;;;;;4.20;1.17;;;;;;;;;;5074263;28;20576;-50
2022/07/09 14:16:27;;;;;;;6.23;1.47;;;;;;;;;;5073880;28;20205;-51
2022/07/09 14:18:54;;;;;;;4.33;1.50;;;;;;;;;;5073797;28;20273;-52
2022/07/09 14:21:20;;;;;;;3.93;1.33;;;;;;;;;;5073695;28;20244;-51
2022/07/09 14:23:48;;;;;;;3.27;1.57;;;;;;;;;;5073876;28;20192;-52
2022/07/09 14:26:15;;;;;;;3.50;1.50;;;;;;;;;;5073942;28;20220;-52
2022/07/09 14:28:41;;;;;;;2.87;1.40;;;;;;;;;;5074023;28;20201;-51
2022/07/09 14:31:07;;;;;;;3.07;1.70;;;;;;;;;;5073711;28;20404;-50
2022/07/09 14:33:33;;;;;;;4.13;1.30;;;;;;;;;;5073823;28;20221;-51
2022/07/09 14:35:59;;;;;;;5.03;1.87;;;;;;;;;;5073614;28;20667;-50